EWG5567 EDDH-LFPG
Flight info
| Callsign | EWG5567 |
|---|---|
| Flight time | 1h 19m |
| Altitude | 36000 |
| Route | WSN5G/33 WSN N125 ITMIZ DCT EMMUN DCT BUB DCT NILEM/N0438F370 DCT MOPIL MOPIL9W |
| Aircraft | A320/M-SDE3FGHIRWY/LB1 |
Departure
| Time | 2026-04-23 20:34 |
|---|---|
| Airport | Hamburg Helmut Schmidt Airport (EDDH) |
Arrival
| Time | 2026-04-23 21:53 |
|---|---|
| Airport | Charles de Gaulle International Airport (LFPG) |
| Time | Latitude | Longitude | Altitude | Speed | Heading |
|---|---|---|---|---|---|
| 2026-04-23 20:02 | 53.63014 | 10.00340 | 51 ft | 0 kts | 122° |
| 2026-04-23 20:10 | 53.63014 | 10.00339 | 51 ft | 0 kts | 122° |
| 2026-04-23 20:14 | 53.63015 | 10.00339 | 51 ft | 0 kts | 122° |
| 2026-04-23 20:18 | 53.63015 | 10.00338 | 51 ft | 0 kts | 122° |
| 2026-04-23 20:26 | 53.63015 | 10.00337 | 51 ft | 1 kts | 122° |
| 2026-04-23 20:26 | 53.63029 | 10.00303 | 47 ft | 4 kts | 128° |
| 2026-04-23 20:26 | 53.63047 | 10.00269 | 48 ft | 4 kts | 138° |
| 2026-04-23 20:27 | 53.63068 | 10.00242 | 50 ft | 4 kts | 151° |
| 2026-04-23 20:27 | 53.63071 | 10.00239 | 44 ft | 0 kts | 153° |
| 2026-04-23 20:28 | 53.63070 | 10.00240 | 44 ft | 1 kts | 153° |
| 2026-04-23 20:28 | 53.63063 | 10.00245 | 49 ft | 1 kts | 153° |
| 2026-04-23 20:29 | 53.63055 | 10.00250 | 47 ft | 0 kts | 171° |
| 2026-04-23 20:29 | 53.63052 | 10.00247 | 44 ft | 1 kts | 193° |
| 2026-04-23 20:29 | 53.63049 | 10.00242 | 45 ft | 3 kts | 215° |
| 2026-04-23 20:29 | 53.63012 | 10.00170 | 51 ft | 9 kts | 229° |
| 2026-04-23 20:30 | 53.62954 | 10.00100 | 50 ft | 11 kts | 211° |
| 2026-04-23 20:30 | 53.62826 | 9.99988 | 49 ft | 0 kts | 210° |
| 2026-04-23 20:31 | 53.62803 | 9.99964 | 48 ft | 9 kts | 211° |
| 2026-04-23 20:31 | 53.62736 | 9.99889 | 49 ft | 10 kts | 244° |
| 2026-04-23 20:32 | 53.62778 | 9.99820 | 48 ft | 10 kts | 331° |
| 2026-04-23 20:32 | 53.62845 | 9.99761 | 49 ft | 11 kts | 333° |
| 2026-04-23 20:32 | 53.62863 | 9.99745 | 49 ft | 0 kts | 333° |
| 2026-04-23 20:32 | 53.62865 | 9.99743 | 49 ft | 2 kts | 333° |
| 2026-04-23 20:33 | 53.62908 | 9.99707 | 50 ft | 17 kts | 334° |
| 2026-04-23 20:33 | 53.63238 | 9.99421 | 50 ft | 88 kts | 333° |
| 2026-04-23 20:33 | 53.63973 | 9.98787 | 49 ft | 144 kts | 333° |
| 2026-04-23 20:33 | 53.64949 | 9.97931 | 371 ft | 162 kts | 328° |
| 2026-04-23 20:34 | 53.65958 | 9.97057 | 1005 ft | 168 kts | 331° |
| 2026-04-23 20:34 | 53.67028 | 9.96169 | 1672 ft | 175 kts | 334° |
| 2026-04-23 20:34 | 53.68154 | 9.95272 | 2442 ft | 177 kts | 335° |
| 2026-04-23 20:34 | 53.69247 | 9.94365 | 3203 ft | 179 kts | 334° |
| 2026-04-23 20:35 | 53.70359 | 9.93389 | 3916 ft | 182 kts | 330° |
| 2026-04-23 20:35 | 53.71257 | 9.91857 | 4601 ft | 191 kts | 301° |
| 2026-04-23 20:35 | 53.71510 | 9.89540 | 5052 ft | 222 kts | 266° |
| 2026-04-23 20:35 | 53.71070 | 9.86922 | 5617 ft | 238 kts | 258° |
| 2026-04-23 20:36 | 53.70535 | 9.84248 | 6393 ft | 242 kts | 257° |
| 2026-04-23 20:36 | 53.69978 | 9.81549 | 7156 ft | 246 kts | 257° |
| 2026-04-23 20:36 | 53.69413 | 9.78813 | 7908 ft | 249 kts | 257° |
| 2026-04-23 20:36 | 53.68845 | 9.76028 | 8678 ft | 252 kts | 257° |
| 2026-04-23 20:37 | 53.68264 | 9.73104 | 9090 ft | 274 kts | 257° |
| 2026-04-23 20:37 | 53.67647 | 9.69973 | 9657 ft | 286 kts | 257° |
| 2026-04-23 20:37 | 53.67010 | 9.66756 | 10141 ft | 292 kts | 257° |
| 2026-04-23 20:37 | 53.66362 | 9.63500 | 10244 ft | 298 kts | 257° |
| 2026-04-23 20:38 | 53.65695 | 9.60140 | 10266 ft | 305 kts | 256° |
| 2026-04-23 20:38 | 53.64782 | 9.56877 | 10268 ft | 311 kts | 243° |
| 2026-04-23 20:38 | 53.63487 | 9.53779 | 10270 ft | 334 kts | 239° |
| 2026-04-23 20:38 | 53.62114 | 9.50577 | 10270 ft | 339 kts | 239° |
| 2026-04-23 20:39 | 53.60716 | 9.47327 | 10832 ft | 344 kts | 238° |
| 2026-04-23 20:39 | 53.59307 | 9.44056 | 11599 ft | 347 kts | 238° |
| 2026-04-23 20:39 | 53.57888 | 9.40755 | 12319 ft | 350 kts | 238° |
| 2026-04-23 20:39 | 53.56448 | 9.37414 | 13048 ft | 355 kts | 237° |
| 2026-04-23 20:40 | 53.54991 | 9.34036 | 13734 ft | 359 kts | 237° |
| 2026-04-23 20:40 | 53.53518 | 9.30624 | 14382 ft | 363 kts | 237° |
| 2026-04-23 20:40 | 53.52030 | 9.27175 | 14999 ft | 366 kts | 237° |
| 2026-04-23 20:40 | 53.50521 | 9.23689 | 15635 ft | 369 kts | 236° |
| 2026-04-23 20:41 | 53.49006 | 9.20195 | 16271 ft | 372 kts | 236° |
| 2026-04-23 20:41 | 53.47997 | 9.17868 | 16690 ft | 373 kts | 236° |
| 2026-04-23 20:41 | 53.46463 | 9.14334 | 17314 ft | 376 kts | 236° |
| 2026-04-23 20:41 | 53.44912 | 9.10766 | 17938 ft | 379 kts | 236° |
| 2026-04-23 20:42 | 53.43355 | 9.07189 | 18564 ft | 382 kts | 236° |
| 2026-04-23 20:42 | 53.41782 | 9.03582 | 19087 ft | 385 kts | 236° |
| 2026-04-23 20:42 | 53.40192 | 8.99953 | 19631 ft | 387 kts | 236° |
| 2026-04-23 20:42 | 53.38593 | 8.96305 | 20165 ft | 390 kts | 236° |
| 2026-04-23 20:43 | 53.36980 | 8.92625 | 20700 ft | 393 kts | 236° |
| 2026-04-23 20:43 | 53.35395 | 8.88896 | 21230 ft | 394 kts | 240° |
| 2026-04-23 20:43 | 53.34137 | 8.84822 | 21762 ft | 394 kts | 250° |
| 2026-04-23 20:43 | 53.33182 | 8.80515 | 22298 ft | 396 kts | 252° |
| 2026-04-23 20:44 | 53.32230 | 8.76181 | 22831 ft | 399 kts | 252° |
| 2026-04-23 20:44 | 53.31265 | 8.71823 | 23353 ft | 401 kts | 251° |
| 2026-04-23 20:44 | 53.30294 | 8.67450 | 23877 ft | 403 kts | 251° |
| 2026-04-23 20:44 | 53.29317 | 8.63047 | 24303 ft | 405 kts | 251° |
| 2026-04-23 20:45 | 53.28342 | 8.58618 | 24725 ft | 407 kts | 252° |
| 2026-04-23 20:45 | 53.27365 | 8.54167 | 25118 ft | 409 kts | 251° |
| 2026-04-23 20:45 | 53.26385 | 8.49685 | 25496 ft | 412 kts | 252° |
| 2026-04-23 20:45 | 53.25450 | 8.45150 | 25878 ft | 414 kts | 253° |
| 2026-04-23 20:46 | 53.24577 | 8.40572 | 26253 ft | 416 kts | 254° |
| 2026-04-23 20:46 | 53.23734 | 8.35942 | 26608 ft | 418 kts | 254° |
| 2026-04-23 20:46 | 53.22895 | 8.31278 | 26957 ft | 420 kts | 255° |
| 2026-04-23 20:46 | 53.22041 | 8.26590 | 27313 ft | 423 kts | 253° |
| 2026-04-23 20:47 | 53.21167 | 8.21900 | 27662 ft | 425 kts | 253° |
| 2026-04-23 20:47 | 53.20270 | 8.17181 | 27995 ft | 427 kts | 253° |
| 2026-04-23 20:47 | 53.19364 | 8.12464 | 28368 ft | 428 kts | 252° |
| 2026-04-23 20:47 | 53.18453 | 8.07726 | 28726 ft | 430 kts | 252° |
| 2026-04-23 20:48 | 53.17546 | 8.02968 | 29042 ft | 432 kts | 252° |
| 2026-04-23 20:48 | 53.16641 | 7.98178 | 29353 ft | 435 kts | 253° |
| 2026-04-23 20:48 | 53.15735 | 7.93354 | 29671 ft | 436 kts | 253° |
| 2026-04-23 20:48 | 53.14825 | 7.88519 | 29970 ft | 439 kts | 252° |
| 2026-04-23 20:49 | 53.13906 | 7.83663 | 30251 ft | 441 kts | 252° |
| 2026-04-23 20:49 | 53.12979 | 7.78788 | 30518 ft | 443 kts | 252° |
| 2026-04-23 20:49 | 53.12042 | 7.73895 | 30770 ft | 444 kts | 251° |
| 2026-04-23 20:49 | 53.10829 | 7.69161 | 31001 ft | 446 kts | 242° |
| 2026-04-23 20:50 | 53.09145 | 7.64835 | 31243 ft | 447 kts | 231° |
| 2026-04-23 20:50 | 53.07054 | 7.61051 | 31601 ft | 444 kts | 222° |
| 2026-04-23 20:50 | 53.04738 | 7.57681 | 31972 ft | 441 kts | 221° |
| 2026-04-23 20:50 | 53.02461 | 7.54390 | 32330 ft | 439 kts | 221° |
| 2026-04-23 20:51 | 53.00161 | 7.51065 | 32719 ft | 437 kts | 220° |
| 2026-04-23 20:51 | 52.97867 | 7.47754 | 32993 ft | 437 kts | 220° |
| 2026-04-23 20:51 | 52.95576 | 7.44455 | 33299 ft | 436 kts | 220° |
| 2026-04-23 20:51 | 52.93284 | 7.41168 | 33659 ft | 434 kts | 220° |
| 2026-04-23 20:52 | 52.91002 | 7.37897 | 33963 ft | 434 kts | 220° |
| 2026-04-23 20:52 | 52.88715 | 7.34628 | 34263 ft | 433 kts | 220° |
| 2026-04-23 20:52 | 52.86439 | 7.31379 | 34587 ft | 431 kts | 220° |
| 2026-04-23 20:52 | 52.84162 | 7.28136 | 34822 ft | 432 kts | 220° |
| 2026-04-23 20:53 | 52.81888 | 7.24904 | 35067 ft | 431 kts | 220° |
| 2026-04-23 20:53 | 52.79616 | 7.21669 | 35336 ft | 430 kts | 220° |
| 2026-04-23 20:53 | 52.77349 | 7.18440 | 35527 ft | 431 kts | 220° |
| 2026-04-23 20:53 | 52.75073 | 7.15211 | 35684 ft | 432 kts | 220° |
| 2026-04-23 20:54 | 52.72790 | 7.11980 | 35907 ft | 432 kts | 219° |
| 2026-04-23 20:54 | 52.70509 | 7.08761 | 36116 ft | 432 kts | 220° |
| 2026-04-23 20:54 | 52.68227 | 7.05544 | 36292 ft | 432 kts | 219° |
| 2026-04-23 20:54 | 52.65944 | 7.02328 | 36352 ft | 431 kts | 220° |
| 2026-04-23 20:55 | 52.61469 | 6.95756 | 36355 ft | 431 kts | 221° |
| 2026-04-23 20:55 | 52.57064 | 6.89092 | 36356 ft | 430 kts | 221° |
| 2026-04-23 20:56 | 52.52634 | 6.82449 | 36355 ft | 431 kts | 221° |
| 2026-04-23 20:56 | 52.48181 | 6.75856 | 36361 ft | 431 kts | 220° |
| 2026-04-23 20:57 | 52.43723 | 6.69297 | 36359 ft | 431 kts | 220° |
| 2026-04-23 20:57 | 52.39256 | 6.62745 | 36358 ft | 431 kts | 220° |
| 2026-04-23 20:58 | 52.34787 | 6.56214 | 36362 ft | 431 kts | 220° |
| 2026-04-23 20:58 | 52.30309 | 6.49666 | 36366 ft | 432 kts | 220° |
| 2026-04-23 20:59 | 52.25828 | 6.43128 | 36363 ft | 432 kts | 220° |
| 2026-04-23 20:59 | 52.21362 | 6.36629 | 36365 ft | 429 kts | 220° |
| 2026-04-23 21:00 | 52.16935 | 6.30215 | 36375 ft | 428 kts | 220° |
| 2026-04-23 21:00 | 52.12477 | 6.23778 | 36378 ft | 428 kts | 219° |
| 2026-04-23 21:01 | 52.08010 | 6.17359 | 36377 ft | 429 kts | 219° |
| 2026-04-23 21:01 | 52.03530 | 6.10933 | 36379 ft | 429 kts | 219° |
| 2026-04-23 21:02 | 51.99054 | 6.04510 | 36372 ft | 429 kts | 219° |
| 2026-04-23 21:02 | 51.94577 | 5.98098 | 36373 ft | 429 kts | 219° |
| 2026-04-23 21:03 | 51.90093 | 5.91704 | 36375 ft | 429 kts | 219° |
| 2026-04-23 21:03 | 51.85596 | 5.85320 | 36377 ft | 430 kts | 219° |
| 2026-04-23 21:04 | 51.81107 | 5.78957 | 36381 ft | 428 kts | 219° |
| 2026-04-23 21:04 | 51.76625 | 5.72630 | 36382 ft | 428 kts | 219° |
| 2026-04-23 21:05 | 51.72147 | 5.66311 | 36383 ft | 428 kts | 219° |
| 2026-04-23 21:05 | 51.67665 | 5.60009 | 36379 ft | 428 kts | 218° |
| 2026-04-23 21:06 | 51.63169 | 5.53702 | 36380 ft | 429 kts | 218° |
| 2026-04-23 21:06 | 51.58691 | 5.47437 | 36381 ft | 429 kts | 218° |
| 2026-04-23 21:07 | 51.54147 | 5.41109 | 36381 ft | 429 kts | 218° |
| 2026-04-23 21:07 | 51.49660 | 5.34874 | 36381 ft | 429 kts | 218° |
| 2026-04-23 21:08 | 51.45151 | 5.28603 | 36382 ft | 429 kts | 218° |
| 2026-04-23 21:08 | 51.40634 | 5.22366 | 36383 ft | 428 kts | 217° |
| 2026-04-23 21:09 | 51.35933 | 5.16620 | 36385 ft | 423 kts | 207° |
| 2026-04-23 21:09 | 51.30816 | 5.11977 | 36375 ft | 423 kts | 206° |
| 2026-04-23 21:10 | 51.25684 | 5.07376 | 36376 ft | 423 kts | 206° |
| 2026-04-23 21:10 | 51.20538 | 5.02798 | 36378 ft | 423 kts | 206° |
| 2026-04-23 21:11 | 51.15396 | 4.98220 | 36377 ft | 424 kts | 206° |
| 2026-04-23 21:11 | 51.10255 | 4.93644 | 36377 ft | 424 kts | 206° |
| 2026-04-23 21:12 | 51.05105 | 4.89077 | 36378 ft | 424 kts | 206° |
| 2026-04-23 21:12 | 50.99956 | 4.84520 | 36379 ft | 424 kts | 206° |
| 2026-04-23 21:13 | 50.94807 | 4.79971 | 36382 ft | 424 kts | 206° |
| 2026-04-23 21:13 | 50.89655 | 4.75427 | 36381 ft | 424 kts | 206° |
| 2026-04-23 21:14 | 50.84502 | 4.70893 | 36375 ft | 424 kts | 206° |
| 2026-04-23 21:14 | 50.79353 | 4.66376 | 36380 ft | 422 kts | 206° |
| 2026-04-23 21:15 | 50.74215 | 4.61903 | 36251 ft | 421 kts | 205° |
| 2026-04-23 21:15 | 50.71663 | 4.59690 | 35995 ft | 417 kts | 205° |
| 2026-04-23 21:15 | 50.69137 | 4.57495 | 35739 ft | 414 kts | 205° |
| 2026-04-23 21:16 | 50.66622 | 4.55305 | 35490 ft | 411 kts | 205° |
| 2026-04-23 21:16 | 50.64124 | 4.53128 | 35242 ft | 409 kts | 205° |
| 2026-04-23 21:16 | 50.61641 | 4.50965 | 34991 ft | 407 kts | 205° |
| 2026-04-23 21:16 | 50.59169 | 4.48815 | 34742 ft | 404 kts | 205° |
| 2026-04-23 21:17 | 50.56718 | 4.46688 | 34507 ft | 402 kts | 205° |
| 2026-04-23 21:17 | 50.54262 | 4.44564 | 34267 ft | 401 kts | 205° |
| 2026-04-23 21:17 | 50.51825 | 4.42459 | 33992 ft | 399 kts | 205° |
| 2026-04-23 21:17 | 50.49396 | 4.40362 | 33720 ft | 398 kts | 205° |
| 2026-04-23 21:18 | 50.46977 | 4.38279 | 33453 ft | 396 kts | 205° |
| 2026-04-23 21:18 | 50.44569 | 4.36212 | 33183 ft | 394 kts | 205° |
| 2026-04-23 21:18 | 50.42165 | 4.34150 | 32915 ft | 392 kts | 205° |
| 2026-04-23 21:18 | 50.39774 | 4.32098 | 32651 ft | 391 kts | 205° |
| 2026-04-23 21:19 | 50.37396 | 4.30059 | 32382 ft | 387 kts | 205° |
| 2026-04-23 21:19 | 50.35046 | 4.28045 | 31935 ft | 383 kts | 205° |
| 2026-04-23 21:19 | 50.32717 | 4.26049 | 31492 ft | 380 kts | 205° |
| 2026-04-23 21:19 | 50.30405 | 4.24068 | 31044 ft | 378 kts | 204° |
| 2026-04-23 21:20 | 50.28138 | 4.22131 | 30617 ft | 375 kts | 204° |
| 2026-04-23 21:20 | 50.25861 | 4.20187 | 30145 ft | 372 kts | 205° |
| 2026-04-23 21:20 | 50.23600 | 4.18257 | 29721 ft | 368 kts | 205° |
| 2026-04-23 21:20 | 50.21368 | 4.16358 | 29307 ft | 363 kts | 205° |
| 2026-04-23 21:21 | 50.19161 | 4.14486 | 28899 ft | 359 kts | 205° |
| 2026-04-23 21:21 | 50.16978 | 4.12637 | 28509 ft | 355 kts | 203° |
| 2026-04-23 21:21 | 50.14729 | 4.11159 | 28121 ft | 347 kts | 194° |
| 2026-04-23 21:21 | 50.12388 | 4.10325 | 27707 ft | 349 kts | 185° |
| 2026-04-23 21:22 | 50.09952 | 4.09884 | 27279 ft | 355 kts | 184° |
| 2026-04-23 21:22 | 50.07492 | 4.09440 | 26843 ft | 356 kts | 184° |
| 2026-04-23 21:22 | 50.05033 | 4.08992 | 26416 ft | 355 kts | 184° |
| 2026-04-23 21:22 | 50.02583 | 4.08544 | 25992 ft | 354 kts | 184° |
| 2026-04-23 21:23 | 50.00135 | 4.08098 | 25566 ft | 353 kts | 184° |
| 2026-04-23 21:23 | 49.97700 | 4.07650 | 25136 ft | 352 kts | 184° |
| 2026-04-23 21:23 | 49.95269 | 4.07203 | 24713 ft | 351 kts | 184° |
| 2026-04-23 21:23 | 49.92844 | 4.06761 | 24292 ft | 350 kts | 184° |
| 2026-04-23 21:24 | 49.90425 | 4.06320 | 23864 ft | 350 kts | 184° |
| 2026-04-23 21:24 | 49.88011 | 4.05881 | 23389 ft | 348 kts | 184° |
| 2026-04-23 21:24 | 49.85608 | 4.05443 | 22976 ft | 347 kts | 184° |
| 2026-04-23 21:24 | 49.83217 | 4.05008 | 22557 ft | 346 kts | 184° |
| 2026-04-23 21:25 | 49.80827 | 4.04573 | 22139 ft | 345 kts | 184° |
| 2026-04-23 21:25 | 49.78451 | 4.04140 | 21725 ft | 343 kts | 184° |
| 2026-04-23 21:25 | 49.76081 | 4.03714 | 21315 ft | 342 kts | 184° |
| 2026-04-23 21:25 | 49.73753 | 4.03297 | 20909 ft | 341 kts | 184° |
| 2026-04-23 21:26 | 49.71370 | 4.02867 | 20487 ft | 340 kts | 184° |
| 2026-04-23 21:26 | 49.69054 | 4.02449 | 20085 ft | 339 kts | 184° |
| 2026-04-23 21:26 | 49.66688 | 4.02023 | 19675 ft | 338 kts | 184° |
| 2026-04-23 21:26 | 49.64354 | 4.01599 | 19268 ft | 337 kts | 184° |
| 2026-04-23 21:27 | 49.62020 | 4.01177 | 18858 ft | 337 kts | 184° |
| 2026-04-23 21:27 | 49.59747 | 4.00587 | 18426 ft | 338 kts | 194° |
| 2026-04-23 21:27 | 49.57582 | 3.99162 | 18010 ft | 340 kts | 210° |
| 2026-04-23 21:27 | 49.55726 | 3.96909 | 17579 ft | 341 kts | 225° |
| 2026-04-23 21:28 | 49.54306 | 3.93999 | 17158 ft | 341 kts | 237° |
| 2026-04-23 21:28 | 49.53027 | 3.90931 | 16731 ft | 340 kts | 236° |
| 2026-04-23 21:28 | 49.51742 | 3.87876 | 16347 ft | 339 kts | 236° |
| 2026-04-23 21:28 | 49.50459 | 3.84845 | 15929 ft | 339 kts | 236° |
| 2026-04-23 21:29 | 49.49181 | 3.81833 | 15657 ft | 334 kts | 236° |
| 2026-04-23 21:29 | 49.47944 | 3.78815 | 15290 ft | 333 kts | 242° |
| 2026-04-23 21:29 | 49.47102 | 3.75537 | 15281 ft | 329 kts | 255° |
| 2026-04-23 21:29 | 49.46715 | 3.73243 | 15303 ft | 329 kts | 256° |
| 2026-04-23 21:30 | 49.46137 | 3.69830 | 15309 ft | 330 kts | 255° |
| 2026-04-23 21:30 | 49.45509 | 3.66443 | 15310 ft | 330 kts | 253° |
| 2026-04-23 21:30 | 49.44822 | 3.63081 | 15309 ft | 330 kts | 252° |
| 2026-04-23 21:30 | 49.44118 | 3.59774 | 15309 ft | 330 kts | 251° |
| 2026-04-23 21:31 | 49.43388 | 3.56385 | 15310 ft | 330 kts | 251° |
| 2026-04-23 21:31 | 49.42678 | 3.53085 | 15307 ft | 330 kts | 251° |
| 2026-04-23 21:31 | 49.41963 | 3.49737 | 15308 ft | 330 kts | 251° |
| 2026-04-23 21:31 | 49.41252 | 3.46388 | 15307 ft | 330 kts | 251° |
| 2026-04-23 21:32 | 49.40547 | 3.43038 | 15309 ft | 330 kts | 251° |
| 2026-04-23 21:32 | 49.39848 | 3.39688 | 15309 ft | 330 kts | 251° |
| 2026-04-23 21:32 | 49.39145 | 3.36332 | 15310 ft | 330 kts | 251° |
| 2026-04-23 21:32 | 49.38438 | 3.32985 | 15307 ft | 330 kts | 251° |
| 2026-04-23 21:33 | 49.37727 | 3.29639 | 15307 ft | 330 kts | 251° |
| 2026-04-23 21:33 | 49.37016 | 3.26302 | 15306 ft | 330 kts | 251° |
| 2026-04-23 21:33 | 49.36304 | 3.22956 | 15307 ft | 330 kts | 251° |
| 2026-04-23 21:33 | 49.35594 | 3.19608 | 15306 ft | 330 kts | 251° |
| 2026-04-23 21:34 | 49.34884 | 3.16265 | 15310 ft | 330 kts | 251° |
| 2026-04-23 21:34 | 49.34171 | 3.12923 | 15309 ft | 330 kts | 251° |
| 2026-04-23 21:34 | 49.33456 | 3.09577 | 15311 ft | 330 kts | 250° |
| 2026-04-23 21:34 | 49.32743 | 3.06244 | 15310 ft | 330 kts | 250° |
| 2026-04-23 21:35 | 49.32028 | 3.02901 | 15310 ft | 330 kts | 250° |
| 2026-04-23 21:35 | 49.31314 | 2.99568 | 15309 ft | 330 kts | 250° |
| 2026-04-23 21:35 | 49.30596 | 2.96231 | 15307 ft | 330 kts | 250° |
| 2026-04-23 21:35 | 49.29876 | 2.92896 | 15307 ft | 330 kts | 250° |
| 2026-04-23 21:36 | 49.28435 | 2.86233 | 15304 ft | 329 kts | 250° |
| 2026-04-23 21:36 | 49.27714 | 2.82906 | 15304 ft | 330 kts | 250° |
| 2026-04-23 21:36 | 49.26992 | 2.79571 | 15295 ft | 330 kts | 250° |
| 2026-04-23 21:37 | 49.26272 | 2.76249 | 15006 ft | 328 kts | 250° |
| 2026-04-23 21:37 | 49.25553 | 2.72936 | 14650 ft | 328 kts | 250° |
| 2026-04-23 21:37 | 49.24830 | 2.69622 | 14254 ft | 328 kts | 250° |
| 2026-04-23 21:37 | 49.24105 | 2.66307 | 13836 ft | 329 kts | 250° |
| 2026-04-23 21:38 | 49.23381 | 2.63003 | 13512 ft | 325 kts | 250° |
| 2026-04-23 21:38 | 49.22674 | 2.59773 | 13164 ft | 323 kts | 250° |
| 2026-04-23 21:38 | 49.21951 | 2.56480 | 12757 ft | 322 kts | 250° |
| 2026-04-23 21:38 | 49.21245 | 2.53269 | 12483 ft | 316 kts | 250° |
| 2026-04-23 21:39 | 49.20542 | 2.50080 | 12093 ft | 316 kts | 250° |
| 2026-04-23 21:39 | 49.19855 | 2.46968 | 11609 ft | 311 kts | 250° |
| 2026-04-23 21:39 | 49.19172 | 2.43864 | 11104 ft | 306 kts | 250° |
| 2026-04-23 21:39 | 49.18489 | 2.40770 | 10707 ft | 306 kts | 250° |
| 2026-04-23 21:40 | 49.17826 | 2.37717 | 10413 ft | 302 kts | 253° |
| 2026-04-23 21:40 | 49.17499 | 2.34547 | 9991 ft | 299 kts | 263° |
| 2026-04-23 21:40 | 49.17307 | 2.31406 | 9561 ft | 297 kts | 263° |
| 2026-04-23 21:40 | 49.17105 | 2.28279 | 9208 ft | 295 kts | 263° |
| 2026-04-23 21:41 | 49.16901 | 2.25173 | 8862 ft | 293 kts | 263° |
| 2026-04-23 21:41 | 49.16502 | 2.22159 | 8520 ft | 289 kts | 245° |
| 2026-04-23 21:41 | 49.15473 | 2.19557 | 8119 ft | 286 kts | 233° |
| 2026-04-23 21:41 | 49.14308 | 2.17098 | 7689 ft | 286 kts | 232° |
| 2026-04-23 21:42 | 49.13127 | 2.14652 | 7279 ft | 285 kts | 232° |
| 2026-04-23 21:42 | 49.11947 | 2.12222 | 6882 ft | 284 kts | 232° |
| 2026-04-23 21:42 | 49.10770 | 2.09812 | 6479 ft | 283 kts | 232° |
| 2026-04-23 21:42 | 49.09598 | 2.07409 | 6075 ft | 281 kts | 232° |
| 2026-04-23 21:43 | 49.08439 | 2.05022 | 5721 ft | 277 kts | 232° |
| 2026-04-23 21:43 | 49.07323 | 2.02707 | 5597 ft | 265 kts | 232° |
| 2026-04-23 21:43 | 49.06261 | 2.00488 | 5476 ft | 253 kts | 232° |
| 2026-04-23 21:43 | 49.05246 | 1.98371 | 5365 ft | 243 kts | 228° |
| 2026-04-23 21:44 | 49.03977 | 1.96780 | 5294 ft | 234 kts | 202° |
| 2026-04-23 21:44 | 49.02433 | 1.96163 | 5297 ft | 228 kts | 177° |
| 2026-04-23 21:44 | 49.00910 | 1.96571 | 5297 ft | 217 kts | 153° |
| 2026-04-23 21:44 | 48.99723 | 1.97776 | 5292 ft | 198 kts | 131° |
| 2026-04-23 21:45 | 48.98956 | 1.99463 | 5296 ft | 192 kts | 112° |
| 2026-04-23 21:45 | 48.98608 | 2.01413 | 5289 ft | 191 kts | 101° |
| 2026-04-23 21:45 | 48.98351 | 2.03381 | 5072 ft | 189 kts | 101° |
| 2026-04-23 21:45 | 48.98090 | 2.05339 | 5004 ft | 188 kts | 101° |
| 2026-04-23 21:46 | 48.97828 | 2.07291 | 5003 ft | 189 kts | 101° |
| 2026-04-23 21:46 | 48.97566 | 2.09252 | 5005 ft | 189 kts | 101° |
| 2026-04-23 21:46 | 48.97304 | 2.11214 | 5008 ft | 189 kts | 101° |
| 2026-04-23 21:46 | 48.97049 | 2.13178 | 5007 ft | 189 kts | 97° |
| 2026-04-23 21:47 | 48.96998 | 2.15173 | 5007 ft | 189 kts | 86° |
| 2026-04-23 21:47 | 48.97110 | 2.17170 | 5005 ft | 189 kts | 86° |
| 2026-04-23 21:47 | 48.97218 | 2.19170 | 5005 ft | 190 kts | 86° |
| 2026-04-23 21:47 | 48.97330 | 2.21174 | 4857 ft | 190 kts | 86° |
| 2026-04-23 21:48 | 48.97443 | 2.23171 | 4640 ft | 189 kts | 85° |
| 2026-04-23 21:48 | 48.97555 | 2.25152 | 4387 ft | 187 kts | 86° |
| 2026-04-23 21:48 | 48.97666 | 2.27106 | 4154 ft | 185 kts | 86° |
| 2026-04-23 21:48 | 48.97776 | 2.29060 | 3910 ft | 184 kts | 86° |
| 2026-04-23 21:49 | 48.97884 | 2.30984 | 3666 ft | 182 kts | 86° |
| 2026-04-23 21:49 | 48.97991 | 2.32884 | 3430 ft | 180 kts | 86° |
| 2026-04-23 21:49 | 48.98097 | 2.34784 | 3198 ft | 178 kts | 85° |
| 2026-04-23 21:49 | 48.98199 | 2.36618 | 2964 ft | 169 kts | 85° |
| 2026-04-23 21:50 | 48.98294 | 2.38328 | 2729 ft | 157 kts | 86° |
| 2026-04-23 21:50 | 48.98383 | 2.39926 | 2523 ft | 145 kts | 86° |
| 2026-04-23 21:50 | 48.98465 | 2.41414 | 2343 ft | 138 kts | 86° |
| 2026-04-23 21:50 | 48.98544 | 2.42852 | 2161 ft | 135 kts | 85° |
| 2026-04-23 21:51 | 48.98622 | 2.44272 | 1979 ft | 134 kts | 85° |
| 2026-04-23 21:51 | 48.98699 | 2.45683 | 1800 ft | 134 kts | 85° |
| 2026-04-23 21:51 | 48.98776 | 2.47093 | 1621 ft | 134 kts | 84° |
| 2026-04-23 21:51 | 48.98853 | 2.48499 | 1442 ft | 132 kts | 84° |
| 2026-04-23 21:52 | 48.98929 | 2.49888 | 1265 ft | 132 kts | 84° |
| 2026-04-23 21:52 | 48.99005 | 2.51293 | 1073 ft | 133 kts | 83° |
| 2026-04-23 21:52 | 48.99081 | 2.52693 | 892 ft | 132 kts | 84° |
| 2026-04-23 21:52 | 48.99156 | 2.54082 | 718 ft | 131 kts | 83° |
| 2026-04-23 21:53 | 48.99229 | 2.55479 | 545 ft | 133 kts | 82° |
| 2026-04-23 21:53 | 48.99309 | 2.56858 | 407 ft | 132 kts | 83° |
| 2026-04-23 21:53 | 48.99379 | 2.58177 | 353 ft | 103 kts | 85° |
| 2026-04-23 21:53 | 48.99418 | 2.58858 | 351 ft | 44 kts | 84° |
| 2026-04-23 21:54 | 48.99460 | 2.59225 | 354 ft | 31 kts | 66° |
| 2026-04-23 21:54 | 48.99539 | 2.59486 | 356 ft | 23 kts | 65° |
| 2026-04-23 21:54 | 48.99596 | 2.59665 | 357 ft | 16 kts | 53° |
| 2026-04-23 21:54 | 48.99682 | 2.59685 | 354 ft | 11 kts | 358° |
| 2026-04-23 21:55 | 48.99771 | 2.59680 | 353 ft | 15 kts | 357° |
| 2026-04-23 21:55 | 48.99879 | 2.59666 | 353 ft | 16 kts | 354° |
| 2026-04-23 21:55 | 48.99997 | 2.59648 | 354 ft | 18 kts | 354° |
| 2026-04-23 21:55 | 49.00126 | 2.59631 | 357 ft | 19 kts | 355° |
| 2026-04-23 21:56 | 49.00246 | 2.59616 | 354 ft | 16 kts | 350° |
| 2026-04-23 21:56 | 49.00287 | 2.59497 | 354 ft | 13 kts | 269° |
| 2026-04-23 21:56 | 49.00267 | 2.59371 | 361 ft | 12 kts | 228° |
| 2026-04-23 21:56 | 49.00239 | 2.59309 | 356 ft | 6 kts | 263° |
| 2026-04-23 21:57 | 49.00234 | 2.59249 | 354 ft | 5 kts | 265° |
| 2026-04-23 21:57 | 49.00231 | 2.59198 | 361 ft | 4 kts | 265° |
| 2026-04-23 21:57 | 49.00231 | 2.59191 | 358 ft | 0 kts | 265° |